createdAt,value
2018-09-18T00:00:20.799Z,95428.22
2018-09-18T00:02:49.711Z,95433.66
2018-09-18T00:05:18.615Z,95427.30
2018-09-18T00:07:47.354Z,95434.83
2018-09-18T00:10:16.011Z,95427.75
2018-09-18T00:12:44.655Z,95429.20
2018-09-18T00:15:13.886Z,95423.31
2018-09-18T00:17:42.558Z,95423.25
2018-09-18T00:20:11.404Z,95424.21
2018-09-18T00:22:40.667Z,95426.29
2018-09-18T00:25:09.443Z,95421.30
2018-09-18T00:27:38.222Z,95420.66
2018-09-18T00:30:07.240Z,95424.77
2018-09-18T00:32:36.005Z,95423.29
2018-09-18T00:35:05.020Z,95419.95
2018-09-18T00:37:34.022Z,95432.25
2018-09-18T00:40:02.678Z,95422.94
2018-09-18T00:42:31.555Z,95429.00
2018-09-18T00:45:00.382Z,95428.09
2018-09-18T00:47:29.163Z,95428.24
2018-09-18T00:49:58.153Z,95419.16
2018-09-18T00:52:26.869Z,95417.68
2018-09-18T00:54:55.722Z,95416.70
2018-09-18T00:57:24.758Z,95415.42
2018-09-18T00:59:53.542Z,95410.86
2018-09-18T01:02:22.315Z,95415.56
2018-09-18T01:04:51.142Z,95415.05
2018-09-18T01:07:19.998Z,95413.14
2018-09-18T01:09:48.646Z,95408.61
2018-09-18T01:12:17.654Z,95412.30
2018-09-18T01:14:47.051Z,95412.10
2018-09-18T01:17:15.759Z,95411.98
2018-09-18T01:19:44.470Z,95418.76
2018-09-18T01:22:13.412Z,95418.88
2018-09-18T01:24:41.994Z,95424.42
2018-09-18T01:27:11.098Z,95424.10
2018-09-18T01:29:40.270Z,95430.72
2018-09-18T01:32:08.938Z,95420.23
2018-09-18T01:34:37.932Z,95417.65
2018-09-18T01:37:06.750Z,95421.27
2018-09-18T01:39:35.836Z,95412.70
2018-09-18T01:42:04.454Z,95416.97
2018-09-18T01:44:33.497Z,95424.58
2018-09-18T01:47:02.494Z,95436.16
2018-09-18T01:49:31.519Z,95423.77
2018-09-18T01:52:00.867Z,95424.80
2018-09-18T01:54:29.591Z,95425.88
2018-09-18T01:56:58.490Z,95430.40
2018-09-18T01:59:27.626Z,95427.91
2018-09-18T02:01:56.371Z,95424.30
2018-09-18T02:04:25.128Z,95427.80
2018-09-18T02:06:54.243Z,95427.97
2018-09-18T02:09:22.898Z,95425.45
2018-09-18T02:11:51.783Z,95424.38
2018-09-18T02:14:20.699Z,95421.23
2018-09-18T02:16:49.795Z,95423.30
2018-09-18T02:19:18.721Z,95420.71
2018-09-18T02:21:47.454Z,95426.61
2018-09-18T02:24:16.267Z,95428.03
2018-09-18T02:26:45.048Z,95427.45
2018-09-18T02:29:14.066Z,95433.45
2018-09-18T02:31:42.650Z,95436.25
2018-09-18T02:34:11.358Z,95436.35
2018-09-18T02:36:40.283Z,95438.87
2018-09-18T02:39:11.466Z,95442.98
2018-09-18T02:41:40.225Z,95436.97
2018-09-18T02:44:09.500Z,95437.70
2018-09-18T02:46:38.549Z,95444.11
2018-09-18T02:49:07.750Z,95442.16
2018-09-18T02:51:36.975Z,95443.75
2018-09-18T02:54:05.861Z,95450.77
2018-09-18T02:56:34.758Z,95443.25
2018-09-18T02:59:04.296Z,95443.55
2018-09-18T03:01:33.244Z,95442.73
2018-09-18T03:04:01.834Z,95444.27
2018-09-18T03:06:30.488Z,95442.62
2018-09-18T03:08:59.129Z,95446.89
2018-09-18T03:11:27.755Z,95445.13
2018-09-18T03:13:56.682Z,95447.48
2018-09-18T03:16:25.647Z,95445.70
2018-09-18T03:18:54.274Z,95448.61
2018-09-18T03:21:23.059Z,95446.69
2018-09-18T03:23:51.668Z,95448.20
2018-09-18T03:26:20.590Z,95451.36
2018-09-18T03:28:49.593Z,95456.08
2018-09-18T03:31:18.312Z,95453.02
2018-09-18T03:33:47.458Z,95462.07
2018-09-18T03:36:16.922Z,95455.11
2018-09-18T03:38:45.847Z,95456.94
2018-09-18T03:41:14.722Z,95459.87
2018-09-18T03:43:43.674Z,95463.73
2018-09-18T03:46:12.424Z,95468.62
2018-09-18T03:48:41.477Z,95466.58
2018-09-18T03:51:11.026Z,95466.50
2018-09-18T03:53:40.080Z,95469.56
2018-09-18T03:56:09.103Z,95473.83
2018-09-18T03:58:38.454Z,95478.40
2018-09-18T04:01:07.332Z,95474.69
2018-09-18T04:03:35.904Z,95479.95
2018-09-18T04:06:05.350Z,95478.89
2018-09-18T04:08:33.971Z,95474.11
2018-09-18T04:11:02.802Z,95474.63
2018-09-18T04:13:32.166Z,95480.52
2018-09-18T04:16:00.854Z,95480.66
2018-09-18T04:18:30.021Z,95478.64
2018-09-18T04:20:59.134Z,95486.50
2018-09-18T04:23:28.005Z,95490.80
2018-09-18T04:25:56.792Z,95485.92
2018-09-18T04:28:25.755Z,95490.22
2018-09-18T04:30:54.782Z,95493.94
2018-09-18T04:33:23.992Z,95488.53
2018-09-18T04:35:53.192Z,95501.35
2018-09-18T04:38:21.972Z,95497.64
2018-09-18T04:40:50.980Z,95500.86
2018-09-18T04:43:20.186Z,95507.33
2018-09-18T04:45:49.246Z,95507.95
2018-09-18T04:48:17.822Z,95509.41
2018-09-18T04:50:46.950Z,95513.38
2018-09-18T04:53:15.940Z,95520.80
2018-09-18T04:55:44.634Z,95521.55
2018-09-18T04:58:13.837Z,95522.11
2018-09-18T05:00:42.960Z,95525.72
2018-09-18T05:03:12.186Z,95530.34
2018-09-18T05:05:41.291Z,95525.41
2018-09-18T05:08:10.148Z,95528.95
2018-09-18T05:10:39.111Z,95531.45
2018-09-18T05:13:08.540Z,95529.05
2018-09-18T05:15:37.310Z,95529.61
2018-09-18T05:18:05.987Z,95533.35
2018-09-18T05:20:35.380Z,95532.36
2018-09-18T05:23:04.482Z,95528.98
2018-09-18T05:25:33.399Z,95535.83
2018-09-18T05:28:02.214Z,95537.12
2018-09-18T05:30:31.018Z,95536.19
2018-09-18T05:33:00.387Z,95539.45
2018-09-18T05:35:29.282Z,95533.45
2018-09-18T05:37:58.287Z,95534.89
2018-09-18T05:40:27.170Z,95540.22
2018-09-18T05:42:56.524Z,95537.61
2018-09-18T05:45:25.461Z,95539.75
2018-09-18T05:47:54.219Z,95534.28
2018-09-18T05:50:22.844Z,95540.09
2018-09-18T05:52:51.666Z,95537.24
2018-09-18T05:55:20.891Z,95547.01
2018-09-18T05:57:49.832Z,95548.63
2018-09-18T06:00:18.974Z,95547.03
2018-09-18T06:02:47.910Z,95541.83
2018-09-18T06:05:17.023Z,95544.20
2018-09-18T06:07:45.750Z,95547.92
2018-09-18T06:10:14.877Z,95551.09
2018-09-18T06:12:45.789Z,95546.88
2018-09-18T06:15:14.845Z,95546.84
2018-09-18T06:17:43.476Z,95553.98
2018-09-18T06:20:12.245Z,95549.86
2018-09-18T06:22:40.859Z,95555.67
2018-09-18T06:25:10.475Z,95557.28
2018-09-18T06:27:39.214Z,95558.59
2018-09-18T06:30:08.738Z,95554.64
2018-09-18T06:32:37.866Z,95555.44
2018-09-18T06:35:07.219Z,95552.31
2018-09-18T06:37:36.539Z,95554.98
2018-09-18T06:40:06.056Z,95546.77
2018-09-18T06:42:35.254Z,95551.02
2018-09-18T06:45:04.860Z,95547.06
2018-09-18T06:47:33.856Z,95551.80
2018-09-18T06:50:02.584Z,95552.62
2018-09-18T06:52:31.346Z,95546.53
2018-09-18T06:55:00.156Z,95543.88
2018-09-18T06:57:28.959Z,95544.92
2018-09-18T06:59:58.379Z,95543.83
2018-09-18T07:02:27.622Z,95546.62
2018-09-18T07:04:56.373Z,95540.97
2018-09-18T07:07:25.455Z,95542.94
2018-09-18T07:09:54.326Z,95534.22
2018-09-18T07:12:23.744Z,95544.00
2018-09-18T07:14:52.957Z,95543.03
2018-09-18T07:17:21.701Z,95546.41
2018-09-18T07:19:50.507Z,95544.74
2018-09-18T07:22:19.738Z,95535.36
2018-09-18T07:24:49.435Z,95542.44
2018-09-18T07:27:18.135Z,95544.91
2018-09-18T07:29:47.763Z,95543.30
2018-09-18T07:32:16.638Z,95544.59
2018-09-18T07:34:45.319Z,95541.13
2018-09-18T07:37:14.336Z,95540.66
2018-09-18T07:39:43.201Z,95545.08
2018-09-18T07:42:12.001Z,95539.76
2018-09-18T07:44:41.063Z,95541.62
2018-09-18T07:47:09.827Z,95544.08
2018-09-18T07:49:38.920Z,95540.53
2018-09-18T07:52:08.112Z,95542.91
2018-09-18T07:54:37.000Z,95541.40
2018-09-18T07:57:05.618Z,95535.97
2018-09-18T07:59:34.956Z,95529.89
2018-09-18T08:02:03.559Z,95531.79
2018-09-18T08:04:32.428Z,95533.00
2018-09-18T08:07:01.343Z,95527.14
2018-09-18T08:09:30.488Z,95532.88
2018-09-18T08:11:59.556Z,95525.38
2018-09-18T08:14:28.745Z,95526.16
2018-09-18T08:16:57.575Z,95524.94
2018-09-18T08:19:26.414Z,95526.89
2018-09-18T08:21:55.779Z,95522.17
2018-09-18T08:24:24.858Z,95528.58
2018-09-18T08:26:53.518Z,95518.83
2018-09-18T08:29:22.518Z,95514.74
2018-09-18T08:31:52.363Z,95513.16
2018-09-18T08:34:21.266Z,95515.77
2018-09-18T08:36:50.426Z,95511.44
2018-09-18T08:39:19.500Z,95513.15
2018-09-18T08:41:48.305Z,95509.76
2018-09-18T08:44:17.589Z,95504.81
2018-09-18T08:46:46.647Z,95508.27
2018-09-18T08:49:15.698Z,95504.63
2018-09-18T08:51:45.032Z,95501.14
2018-09-18T08:54:13.896Z,95505.18
2018-09-18T08:56:42.880Z,95499.22
2018-09-18T08:59:11.908Z,95503.80
2018-09-18T09:01:40.727Z,95496.33
2018-09-18T09:04:09.495Z,95493.41
2018-09-18T09:06:38.662Z,95493.59
2018-09-18T09:09:14.541Z,95492.37
2018-09-18T09:11:44.750Z,95496.05
2018-09-18T09:14:14.124Z,95483.81
2018-09-18T09:16:43.223Z,95489.04
2018-09-18T09:19:12.552Z,95483.28
2018-09-18T09:21:41.425Z,95482.77
2018-09-18T09:24:10.284Z,95480.86
2018-09-18T09:26:39.448Z,95484.83
2018-09-18T09:29:08.020Z,95478.70
2018-09-18T09:31:36.756Z,95481.37
2018-09-18T09:34:05.717Z,95471.86
2018-09-18T09:36:34.379Z,95469.59
2018-09-18T09:39:03.172Z,95469.97
2018-09-18T09:41:32.045Z,95469.84
2018-09-18T09:44:00.802Z,95462.56
2018-09-18T09:46:29.839Z,95468.23
2018-09-18T09:48:59.216Z,95457.77
2018-09-18T09:51:28.420Z,95463.19
2018-09-18T09:53:57.403Z,95457.39
2018-09-18T09:56:26.913Z,95446.41
2018-09-18T09:58:55.719Z,95448.88
2018-09-18T10:01:30.208Z,95454.42
2018-09-18T10:03:59.039Z,95447.05
2018-09-18T10:06:27.995Z,95440.67
2018-09-18T10:08:56.926Z,95437.34
2018-09-18T10:11:25.743Z,95438.54
2018-09-18T10:13:54.839Z,95432.60
2018-09-18T10:16:24.362Z,95433.81
2018-09-18T10:18:53.460Z,95429.63
2018-09-18T10:21:22.288Z,95421.97
2018-09-18T10:23:51.247Z,95428.14
2018-09-18T10:26:20.302Z,95423.86
2018-09-18T10:28:49.411Z,95424.58
2018-09-18T10:31:18.784Z,95416.04
2018-09-18T10:33:47.788Z,95414.48
2018-09-18T10:36:16.458Z,95412.59
2018-09-18T10:38:45.346Z,95412.91
2018-09-18T10:41:14.464Z,95403.68
2018-09-18T10:43:43.287Z,95401.49
2018-09-18T10:46:12.130Z,95402.38
2018-09-18T10:48:46.408Z,95384.16
2018-09-18T10:51:16.015Z,95387.89
2018-09-18T10:53:44.791Z,95388.23
2018-09-18T10:56:13.888Z,95382.56
2018-09-18T10:58:43.792Z,95384.41
2018-09-18T11:01:12.691Z,95382.30
2018-09-18T11:03:41.503Z,95379.03
2018-09-18T11:06:10.839Z,95384.36
2018-09-18T11:08:39.501Z,95383.00
2018-09-18T11:11:08.141Z,95371.94
2018-09-18T11:13:37.405Z,95364.52
2018-09-18T11:16:06.513Z,95361.05
2018-09-18T11:18:35.613Z,95363.62
2018-09-18T11:21:04.718Z,95359.36
2018-09-18T11:23:33.843Z,95358.11
2018-09-18T11:26:02.643Z,95351.80
2018-09-18T11:28:31.971Z,95351.11
2018-09-18T11:31:00.537Z,95350.30
2018-09-18T11:33:29.848Z,95350.92
2018-09-18T11:35:59.127Z,95348.25
2018-09-18T11:38:27.785Z,95342.77
2018-09-18T11:40:56.492Z,95335.72
2018-09-18T11:43:25.454Z,95335.92
2018-09-18T11:45:54.631Z,95336.05
2018-09-18T11:48:23.163Z,95331.63
2018-09-18T11:50:52.083Z,95327.27
2018-09-18T11:53:20.786Z,95325.00
2018-09-18T11:55:49.602Z,95326.56
2018-09-18T11:58:18.723Z,95323.21
2018-09-18T12:00:47.560Z,95309.75
2018-09-18T12:03:16.528Z,95314.37
2018-09-18T12:05:45.738Z,95312.78
2018-09-18T12:08:14.867Z,95311.32
2018-09-18T12:10:43.615Z,95306.96
2018-09-18T12:13:12.689Z,95308.02
2018-09-18T12:15:41.331Z,95306.78
2018-09-18T12:18:10.285Z,95303.28
2018-09-18T12:20:39.556Z,95299.66
2018-09-18T12:23:08.482Z,95303.57
2018-09-18T12:25:37.571Z,95289.72
2018-09-18T12:28:06.396Z,95295.34
2018-09-18T12:30:35.559Z,95294.19
2018-09-18T12:33:04.554Z,95291.70
2018-09-18T12:35:33.565Z,95279.95
2018-09-18T12:38:02.644Z,95281.20
2018-09-18T12:40:31.731Z,95274.13
2018-09-18T12:43:00.449Z,95279.87
2018-09-18T12:45:29.512Z,95270.71
2018-09-18T12:47:58.211Z,95269.94
2018-09-18T12:50:27.252Z,95265.15
2018-09-18T12:52:56.091Z,95261.61
2018-09-18T12:55:25.234Z,95263.14
2018-09-18T12:57:54.153Z,95258.39
2018-09-18T13:00:23.343Z,95246.08
2018-09-18T13:02:52.342Z,95245.53
2018-09-18T13:05:21.411Z,95250.25
2018-09-18T13:07:50.737Z,95247.59
2018-09-18T13:10:19.535Z,95251.89
2018-09-18T13:12:48.605Z,95248.08
2018-09-18T13:15:17.396Z,95245.89
2018-09-18T13:17:46.110Z,95240.83
2018-09-18T13:20:14.847Z,95240.13
2018-09-18T13:22:44.166Z,95239.50
2018-09-18T13:25:13.034Z,95240.30
2018-09-18T13:27:41.868Z,95238.31
2018-09-18T13:30:11.423Z,95233.26
2018-09-18T13:32:40.629Z,95230.75
2018-09-18T13:35:09.537Z,95224.50
2018-09-18T13:37:38.716Z,95227.28
2018-09-18T13:40:07.793Z,95224.98
2018-09-18T13:42:36.531Z,95219.54
2018-09-18T13:45:05.473Z,95223.45
2018-09-18T13:47:34.159Z,95214.68
2018-09-18T13:50:02.829Z,95219.50
2018-09-18T13:52:31.720Z,95216.45
2018-09-18T13:55:00.740Z,95212.73
2018-09-18T13:57:29.542Z,95218.21
2018-09-18T13:59:58.971Z,95214.48
2018-09-18T14:02:28.647Z,95216.09
2018-09-18T14:04:57.573Z,95213.44
2018-09-18T14:07:26.667Z,95221.75
2018-09-18T14:09:55.712Z,95210.52
2018-09-18T14:12:24.494Z,95203.23
2018-09-18T14:14:53.666Z,95207.23
2018-09-18T14:17:22.202Z,95203.78
2018-09-18T14:19:50.932Z,95197.98
2018-09-18T14:22:20.179Z,95206.53
2018-09-18T14:24:49.271Z,95200.44
2018-09-18T14:27:18.462Z,95204.25
2018-09-18T14:29:47.510Z,95198.56
2018-09-18T14:32:16.672Z,95205.17
2018-09-18T14:34:45.536Z,95202.03
2018-09-18T14:37:14.709Z,95203.36
2018-09-18T14:39:44.153Z,95202.65
2018-09-18T14:42:13.076Z,95206.50
2018-09-18T14:44:42.067Z,95208.39
2018-09-18T14:47:10.700Z,95211.23
2018-09-18T14:49:39.719Z,95207.89
2018-09-18T14:52:08.705Z,95214.77
2018-09-18T14:54:37.551Z,95208.89
2018-09-18T14:57:06.451Z,95211.41
2018-09-18T14:59:35.675Z,95211.80
2018-09-18T15:02:04.651Z,95211.78
2018-09-18T15:04:33.662Z,95210.64
2018-09-18T15:07:02.927Z,95217.56
2018-09-18T15:09:31.712Z,95219.36
2018-09-18T15:12:00.469Z,95217.05
2018-09-18T15:14:29.108Z,95218.98
2018-09-18T15:16:57.736Z,95216.06
2018-09-18T15:19:26.455Z,95213.91
2018-09-18T15:21:55.473Z,95220.70
2018-09-18T15:24:24.183Z,95229.83
2018-09-18T15:26:52.958Z,95225.55
2018-09-18T15:29:22.031Z,95222.59
2018-09-18T15:31:50.858Z,95221.55
2018-09-18T15:34:19.967Z,95225.27
2018-09-18T15:36:49.049Z,95223.63
2018-09-18T15:39:17.824Z,95231.50
2018-09-18T15:41:46.894Z,95227.79
2018-09-18T15:44:15.638Z,95230.88
2018-09-18T15:46:44.409Z,95228.39
2018-09-18T15:49:13.066Z,95230.96
2018-09-18T15:51:41.875Z,95229.58
2018-09-18T15:54:10.724Z,95231.84
2018-09-18T15:56:39.809Z,95231.96
2018-09-18T15:59:08.574Z,95233.34
2018-09-18T16:01:37.459Z,95229.30
2018-09-18T16:04:06.504Z,95234.31
2018-09-18T16:06:35.651Z,95246.14
2018-09-18T16:09:05.557Z,95240.67
2018-09-18T16:11:34.655Z,95242.67
2018-09-18T16:14:03.554Z,95234.20
2018-09-18T16:16:32.251Z,95241.31
2018-09-18T16:19:00.955Z,95237.59
2018-09-18T16:21:29.809Z,95233.88
2018-09-18T16:23:59.093Z,95239.60
2018-09-18T16:26:27.904Z,95238.84
2018-09-18T16:28:56.908Z,95240.31
2018-09-18T16:31:26.082Z,95245.13
2018-09-18T16:33:55.035Z,95251.05
2018-09-18T16:36:23.991Z,95246.34
2018-09-18T16:38:52.880Z,95247.23
2018-09-18T16:41:22.113Z,95249.80
2018-09-18T16:43:51.170Z,95254.56
2018-09-18T16:46:20.007Z,95254.92
2018-09-18T16:48:48.685Z,95255.44
2018-09-18T16:51:17.367Z,95249.83
2018-09-18T16:53:46.380Z,95248.02
2018-09-18T16:56:15.262Z,95255.55
2018-09-18T16:58:44.300Z,95261.19
2018-09-18T17:01:12.989Z,95260.55
2018-09-18T17:03:41.919Z,95258.61
2018-09-18T17:06:10.810Z,95259.42
2018-09-18T17:08:39.600Z,95256.27
2018-09-18T17:11:08.587Z,95259.65
2018-09-18T17:13:37.525Z,95263.05
2018-09-18T17:16:06.379Z,95265.33
2018-09-18T17:18:35.369Z,95267.26
2018-09-18T17:21:04.174Z,95268.09
2018-09-18T17:23:33.067Z,95276.88
2018-09-18T17:26:02.104Z,95267.93
2018-09-18T17:28:31.183Z,95281.61
2018-09-18T17:30:59.921Z,95281.70
2018-09-18T17:33:28.885Z,95280.78
2018-09-18T17:35:57.595Z,95281.10
2018-09-18T17:38:26.452Z,95286.84
2018-09-18T17:40:55.716Z,95287.30
2018-09-18T17:43:24.369Z,95286.64
2018-09-18T17:45:53.406Z,95288.88
2018-09-18T17:48:22.332Z,95300.30
2018-09-18T17:50:51.078Z,95304.48
2018-09-18T17:53:19.973Z,95302.60
2018-09-18T17:55:49.015Z,95306.84
2018-09-18T17:58:17.919Z,95305.67
2018-09-18T18:00:46.793Z,95309.48
2018-09-18T18:03:16.000Z,95304.39
2018-09-18T18:05:45.115Z,95307.94
2018-09-18T18:08:13.979Z,95313.19
2018-09-18T18:10:43.031Z,95314.37
2018-09-18T18:13:11.820Z,95314.27
2018-09-18T18:15:40.848Z,95317.35
2018-09-18T18:18:09.570Z,95315.23
2018-09-18T18:20:38.377Z,95314.44
2018-09-18T18:23:07.276Z,95319.94
2018-09-18T18:25:36.472Z,95322.55
2018-09-18T18:28:05.442Z,95323.95
2018-09-18T18:30:34.282Z,95323.84
2018-09-18T18:33:03.306Z,95323.39
2018-09-18T18:35:32.316Z,95322.06
2018-09-18T18:38:01.253Z,95321.08
2018-09-18T18:40:30.522Z,95324.91
2018-09-18T18:42:59.361Z,95321.47
2018-09-18T18:45:28.647Z,95325.20
2018-09-18T18:47:57.460Z,95327.00
2018-09-18T18:50:26.094Z,95327.85
2018-09-18T18:52:54.869Z,95324.44
2018-09-18T18:55:23.968Z,95330.41
2018-09-18T18:57:52.844Z,95330.72
2018-09-18T19:00:21.506Z,95324.52
2018-09-18T19:02:50.512Z,95325.75
2018-09-18T19:05:19.322Z,95327.95
2018-09-18T19:07:48.471Z,95331.34
2018-09-18T19:10:17.422Z,95322.97
2018-09-18T19:12:46.735Z,95331.56
2018-09-18T19:15:15.813Z,95330.87
2018-09-18T19:17:44.605Z,95331.23
2018-09-18T19:20:13.778Z,95333.55
2018-09-18T19:22:42.845Z,95333.12
2018-09-18T19:25:11.744Z,95332.50
2018-09-18T19:27:40.828Z,95327.53
2018-09-18T19:30:09.709Z,95333.18
2018-09-18T19:32:38.877Z,95334.87
2018-09-18T19:35:08.116Z,95335.64
2018-09-18T19:37:36.958Z,95332.27
2018-09-18T19:40:05.885Z,95337.83
2018-09-18T19:42:34.975Z,95332.27
2018-09-18T19:45:03.819Z,95334.52
2018-09-18T19:47:32.602Z,95331.75
2018-09-18T19:50:01.373Z,95333.44
2018-09-18T19:52:30.051Z,95334.91
2018-09-18T19:54:59.148Z,95335.23
2018-09-18T19:57:28.036Z,95341.02
2018-09-18T19:59:56.989Z,95343.72
2018-09-18T20:02:26.028Z,95340.02
2018-09-18T20:04:55.079Z,95343.31
2018-09-18T20:07:23.806Z,95344.85
2018-09-18T20:09:52.661Z,95344.94
2018-09-18T20:12:21.434Z,95351.73
2018-09-18T20:14:50.171Z,95353.20
2018-09-18T20:17:18.894Z,95350.94
2018-09-18T20:19:47.529Z,95356.31
2018-09-18T20:22:16.147Z,95366.27
2018-09-18T20:24:45.151Z,95367.06
2018-09-18T20:27:14.530Z,95371.66
2018-09-18T20:29:43.467Z,95374.58
2018-09-18T20:32:12.536Z,95373.47
2018-09-18T20:34:41.693Z,95376.27
2018-09-18T20:37:10.762Z,95372.98
2018-09-18T20:39:39.741Z,95374.41
2018-09-18T20:42:08.872Z,95377.03
2018-09-18T20:44:37.736Z,95387.06
2018-09-18T20:47:07.085Z,95379.64
2018-09-18T20:49:35.800Z,95383.91
2018-09-18T20:52:04.647Z,95383.49
2018-09-18T20:54:33.583Z,95390.70
2018-09-18T20:57:02.366Z,95395.80
2018-09-18T20:59:31.550Z,95401.47
2018-09-18T21:02:00.401Z,95406.53
2018-09-18T21:04:29.419Z,95407.35
2018-09-18T21:06:58.326Z,95406.03
2018-09-18T21:09:27.180Z,95403.41
2018-09-18T21:11:56.149Z,95403.97
2018-09-18T21:14:25.193Z,95408.97
2018-09-18T21:16:53.901Z,95402.91
2018-09-18T21:19:22.516Z,95411.36
2018-09-18T21:21:51.273Z,95402.38
2018-09-18T21:24:20.050Z,95411.08
2018-09-18T21:26:48.942Z,95406.88
2018-09-18T21:29:17.734Z,95401.32
2018-09-18T21:31:47.707Z,95397.90
2018-09-18T21:34:16.643Z,95396.05
2018-09-18T21:36:45.286Z,95389.18
2018-09-18T21:39:14.208Z,95399.73
2018-09-18T21:41:43.206Z,95397.64
2018-09-18T21:44:12.319Z,95395.27
2018-09-18T21:46:41.398Z,95395.25
2018-09-18T21:49:10.298Z,95393.09
2018-09-18T21:51:39.104Z,95396.75
2018-09-18T21:54:07.776Z,95395.20
2018-09-18T21:56:36.430Z,95395.14
2018-09-18T21:59:05.450Z,95399.58
2018-09-18T22:01:34.299Z,95398.48
2018-09-18T22:04:03.101Z,95401.62
2018-09-18T22:06:32.003Z,95400.27
2018-09-18T22:09:00.724Z,95397.93
2018-09-18T22:11:29.717Z,95398.72
2018-09-18T22:13:58.473Z,95403.20
2018-09-18T22:16:27.579Z,95403.47
2018-09-18T22:18:56.547Z,95402.56
2018-09-18T22:21:25.495Z,95398.61
2018-09-18T22:23:54.293Z,95395.95
2018-09-18T22:26:22.957Z,95394.89
2018-09-18T22:28:51.664Z,95396.19
2018-09-18T22:31:20.554Z,95399.66
2018-09-18T22:33:49.391Z,95395.55
2018-09-18T22:36:18.350Z,95394.81
2018-09-18T22:38:47.301Z,95390.96
2018-09-18T22:41:16.193Z,95388.19
2018-09-18T22:43:45.366Z,95392.08
2018-09-18T22:46:14.323Z,95393.41
2018-09-18T22:48:43.465Z,95396.09
2018-09-18T22:51:12.248Z,95399.79
2018-09-18T22:53:41.183Z,95396.75
2018-09-18T22:56:09.973Z,95390.07
2018-09-18T22:58:38.863Z,95403.61
2018-09-18T23:01:07.559Z,95402.41
2018-09-18T23:03:36.417Z,95409.02
2018-09-18T23:06:05.249Z,95405.10
2018-09-18T23:08:34.261Z,95407.89
2018-09-18T23:11:02.874Z,95410.61
2018-09-18T23:13:31.915Z,95403.02
2018-09-18T23:16:00.968Z,95401.97
2018-09-18T23:18:29.888Z,95410.83
2018-09-18T23:20:58.592Z,95413.95
2018-09-18T23:23:27.486Z,95409.48
2018-09-18T23:25:56.381Z,95411.69
2018-09-18T23:28:24.973Z,95418.20
2018-09-18T23:30:53.815Z,95410.91
2018-09-18T23:33:22.534Z,95417.41
2018-09-18T23:35:51.458Z,95419.64
2018-09-18T23:38:20.673Z,95420.44
2018-09-18T23:40:49.811Z,95429.48
2018-09-18T23:43:18.882Z,95427.61
2018-09-18T23:45:47.715Z,95425.42
2018-09-18T23:48:16.439Z,95435.53
2018-09-18T23:50:45.499Z,95435.88
2018-09-18T23:53:14.231Z,95432.36
2018-09-18T23:55:43.185Z,95431.72
2018-09-18T23:58:11.821Z,95432.09
